Amity, Pennsylvania
Current Conditions -  °F | °C
As of 11:15 AM on Friday 24 Oct 2014 (Local Time) from KAFJ Reporting Station
Clear Clear  
Wind Chill: 11°   Ceiling: Unl
Heat Index: 11°   Visibility: 10mi
Dew Point:   Wind: 6mph
Humidity: 71%   Direction: 260°W
Pressure: 30.11"   Gusts: NA
Location:  40.03°N, 80.2°W
Report Text: KAFJ 241515Z AUTO 26005KT 10SM CLR 11/06 A3011 RMK AO1
Loading
Personal Weather Stations






























Interactive Weather Map
Tropical Storm Tracking
New forecast layout! Learn more

10-Day Weather Forecast

Advertisements
Track Severe Weather on mobile